Nearby METAR Reports

 

KMQS - Coatesville, Pennsylvania, USA
Distance from station: ENE 6mi, 10km
Updated: Fri, 25-May-2018 8:15am EDT
Clear
Clear
 Wind from varies
Wind: varies 5 mph , 7 km/h
Temperature: 68°F , 20°C
Dew Point: 55°F , 13°C
Humidity: 64%
Barometer: 30.10 inHg , 1019.3 hPa
Clouds: Clear
Visibility: 10 miles , 16 km
2018/05/25 12:15 KMQS 251215Z AUTO VRB04KT 10SM CLR 20/13 A3010 RMK AO2
KLNS - Lancaster, Pennsylvania, USA
Distance from station: NW 21mi, 33km
Updated: Fri, 25-May-2018 7:53am EDT
Clear
Clear
 Wind from E
Wind: E 3 mph , 6 km/h
Temperature: 64°F , 18°C
Dew Point: 55°F , 13°C
Humidity: 73%
Barometer: 30.08 inHg , 1018.6 hPa
Clouds: Clear
Visibility: 7 miles , 11 km
2018/05/25 11:53 KLNS 251153Z 09003KT 7SM CLR 18/13 A3008 RMK AO2 SLP183 T01780128 10178 20117 50000
 
KILG - Wilmington, Delaware, USA
Distance from station: SE 28mi, 45km
Updated: Fri, 25-May-2018 7:51am EDT
Clear
Clear
 Wind from varies
Wind: varies 3 mph , 6 km/h
Temperature: 64°F , 18°C
Dew Point: 63°F , 17°C
Humidity: 94%
Barometer: 30.09 inHg , 1019 hPa
Clouds: Clear
Visibility: 10 miles , 16 km
2018/05/25 11:51 KILG 251151Z VRB03KT 10SM CLR 18/17 A3009 RMK AO2 SLP190 T01830167 10183 20139 50002 $
KRDG - Reading, Pennsylvania, USA
Distance from station: N 29mi, 47km
Updated: Fri, 25-May-2018 7:54am EDT
Clear
Clear
 Wind from calm
Wind: Calm
Temperature: 64°F , 18°C
Dew Point: 59°F , 15°C
Humidity: 83%
Barometer: 30.06 inHg , 1017.9 hPa
Clouds: Clear
Visibility: 10 miles , 16 km
2018/05/25 11:54 KRDG 251154Z 00000KT 10SM CLR 18/15 A3006 RMK AO2 SLP183 T01830150 10200 20128 58002
 
KPTW - Pottstown, Pennsylvania, USA
Distance from station: NE 30mi, 48km
Updated: Fri, 25-May-2018 7:54am EDT
Clear
Clear
 Wind from calm
Wind: Calm
Temperature: 64°F , 18°C
Dew Point: 54°F , 12°C
Humidity: 68%
Barometer: 30.10 inHg , 1019.3 hPa
Clouds: Clear
Visibility: 8 miles , 13 km
2018/05/25 11:54 KPTW 251154Z AUTO 00000KT 8SM CLR 18/12 A3010 RMK AO2 SLP186 T01780122 10189 20117 50002